sensor_id;sensor_type;location;lat;lon;timestamp;P1;durP1;ratioP1;P2;durP2;ratioP2
19705;SDS011;10003;52.506;4.700;2023-08-31T00:00:18;0.50;;;0.50;;
19705;SDS011;10003;52.506;4.700;2023-08-31T00:02:46;0.40;;;0.40;;
19705;SDS011;10003;52.506;4.700;2023-08-31T00:05:18;0.40;;;0.40;;
19705;SDS011;10003;52.506;4.700;2023-08-31T00:07:46;0.40;;;0.40;;
19705;SDS011;10003;52.506;4.700;2023-08-31T00:10:18;0.40;;;0.40;;
19705;SDS011;10003;52.506;4.700;2023-08-31T00:12:46;0.40;;;0.40;;
19705;SDS011;10003;52.506;4.700;2023-08-31T00:15:15;0.40;;;0.40;;
19705;SDS011;10003;52.506;4.700;2023-08-31T00:17:44;0.40;;;0.40;;
19705;SDS011;10003;52.506;4.700;2023-08-31T00:20:13;0.40;;;0.40;;
19705;SDS011;10003;52.506;4.700;2023-08-31T00:22:45;0.40;;;0.40;;
19705;SDS011;10003;52.506;4.700;2023-08-31T00:25:14;0.40;;;0.40;;
19705;SDS011;10003;52.506;4.700;2023-08-31T00:27:45;0.50;;;0.50;;
19705;SDS011;10003;52.506;4.700;2023-08-31T00:30:14;0.40;;;0.40;;
19705;SDS011;10003;52.506;4.700;2023-08-31T00:32:43;0.40;;;0.40;;
19705;SDS011;10003;52.506;4.700;2023-08-31T00:35:15;0.40;;;0.40;;
19705;SDS011;10003;52.506;4.700;2023-08-31T00:37:43;0.50;;;0.50;;
19705;SDS011;10003;52.506;4.700;2023-08-31T00:40:13;0.43;;;0.43;;
19705;SDS011;10003;52.506;4.700;2023-08-31T00:42:42;0.40;;;0.40;;
19705;SDS011;10003;52.506;4.700;2023-08-31T00:45:11;0.50;;;0.50;;
19705;SDS011;10003;52.506;4.700;2023-08-31T00:47:39;0.50;;;0.50;;
19705;SDS011;10003;52.506;4.700;2023-08-31T00:50:08;0.50;;;0.50;;
19705;SDS011;10003;52.506;4.700;2023-08-31T00:52:37;0.50;;;0.50;;
19705;SDS011;10003;52.506;4.700;2023-08-31T00:55:06;0.50;;;0.50;;
19705;SDS011;10003;52.506;4.700;2023-08-31T00:57:36;0.40;;;0.40;;
19705;SDS011;10003;52.506;4.700;2023-08-31T01:00:05;0.50;;;0.50;;
19705;SDS011;10003;52.506;4.700;2023-08-31T01:02:37;0.40;;;0.40;;
19705;SDS011;10003;52.506;4.700;2023-08-31T01:05:19;0.40;;;0.40;;
19705;SDS011;10003;52.506;4.700;2023-08-31T01:07:51;0.50;;;0.50;;
19705;SDS011;10003;52.506;4.700;2023-08-31T01:10:22;0.50;;;0.50;;
19705;SDS011;10003;52.506;4.700;2023-08-31T01:12:56;0.40;;;0.40;;
19705;SDS011;10003;52.506;4.700;2023-08-31T01:15:27;0.50;;;0.50;;
19705;SDS011;10003;52.506;4.700;2023-08-31T01:17:58;0.40;;;0.40;;
19705;SDS011;10003;52.506;4.700;2023-08-31T01:20:31;0.40;;;0.40;;
19705;SDS011;10003;52.506;4.700;2023-08-31T01:23:01;0.40;;;0.40;;
19705;SDS011;10003;52.506;4.700;2023-08-31T01:25:32;0.40;;;0.40;;
19705;SDS011;10003;52.506;4.700;2023-08-31T01:28:01;0.40;;;0.40;;
19705;SDS011;10003;52.506;4.700;2023-08-31T01:30:30;0.40;;;0.40;;
19705;SDS011;10003;52.506;4.700;2023-08-31T01:32:59;0.40;;;0.40;;
19705;SDS011;10003;52.506;4.700;2023-08-31T01:35:29;0.40;;;0.40;;
19705;SDS011;10003;52.506;4.700;2023-08-31T01:38:01;0.40;;;0.40;;
19705;SDS011;10003;52.506;4.700;2023-08-31T01:40:34;0.40;;;0.40;;
19705;SDS011;10003;52.506;4.700;2023-08-31T01:43:04;0.40;;;0.40;;
19705;SDS011;10003;52.506;4.700;2023-08-31T01:45:33;0.40;;;0.40;;
19705;SDS011;10003;52.506;4.700;2023-08-31T01:48:02;0.40;;;0.40;;
19705;SDS011;10003;52.506;4.700;2023-08-31T01:50:30;0.40;;;0.40;;
19705;SDS011;10003;52.506;4.700;2023-08-31T01:52:59;0.40;;;0.40;;
19705;SDS011;10003;52.506;4.700;2023-08-31T01:55:27;0.40;;;0.40;;
19705;SDS011;10003;52.506;4.700;2023-08-31T01:57:57;0.40;;;0.40;;
19705;SDS011;10003;52.506;4.700;2023-08-31T02:00:28;0.40;;;0.40;;
19705;SDS011;10003;52.506;4.700;2023-08-31T02:03:01;0.40;;;0.40;;
19705;SDS011;10003;52.506;4.700;2023-08-31T02:05:30;0.40;;;0.40;;
19705;SDS011;10003;52.506;4.700;2023-08-31T02:07:58;0.40;;;0.40;;
19705;SDS011;10003;52.506;4.700;2023-08-31T02:10:27;0.40;;;0.40;;
19705;SDS011;10003;52.506;4.700;2023-08-31T02:12:57;0.40;;;0.40;;
19705;SDS011;10003;52.506;4.700;2023-08-31T02:15:26;0.40;;;0.40;;
19705;SDS011;10003;52.506;4.700;2023-08-31T02:17:55;0.40;;;0.40;;
19705;SDS011;10003;52.506;4.700;2023-08-31T02:20:23;0.40;;;0.40;;
19705;SDS011;10003;52.506;4.700;2023-08-31T02:22:53;0.40;;;0.40;;
19705;SDS011;10003;52.506;4.700;2023-08-31T02:25:22;0.40;;;0.40;;
19705;SDS011;10003;52.506;4.700;2023-08-31T02:27:54;0.40;;;0.40;;
19705;SDS011;10003;52.506;4.700;2023-08-31T02:30:24;0.40;;;0.40;;
19705;SDS011;10003;52.506;4.700;2023-08-31T02:32:52;0.40;;;0.40;;
19705;SDS011;10003;52.506;4.700;2023-08-31T02:35:21;0.40;;;0.40;;
19705;SDS011;10003;52.506;4.700;2023-08-31T02:37:49;0.40;;;0.40;;
19705;SDS011;10003;52.506;4.700;2023-08-31T02:40:18;0.40;;;0.40;;
19705;SDS011;10003;52.506;4.700;2023-08-31T02:42:49;0.40;;;0.40;;
19705;SDS011;10003;52.506;4.700;2023-08-31T02:45:18;0.40;;;0.40;;
19705;SDS011;10003;52.506;4.700;2023-08-31T02:47:48;0.40;;;0.40;;
19705;SDS011;10003;52.506;4.700;2023-08-31T02:50:17;0.40;;;0.40;;
19705;SDS011;10003;52.506;4.700;2023-08-31T02:52:46;1.83;;;1.83;;
19705;SDS011;10003;52.506;4.700;2023-08-31T02:55:14;0.40;;;0.40;;
19705;SDS011;10003;52.506;4.700;2023-08-31T02:57:46;0.40;;;0.40;;
19705;SDS011;10003;52.506;4.700;2023-08-31T03:00:14;0.40;;;0.40;;
19705;SDS011;10003;52.506;4.700;2023-08-31T03:02:49;0.40;;;0.40;;
19705;SDS011;10003;52.506;4.700;2023-08-31T03:05:18;0.40;;;0.40;;
19705;SDS011;10003;52.506;4.700;2023-08-31T03:07:47;0.40;;;0.40;;
19705;SDS011;10003;52.506;4.700;2023-08-31T03:10:16;0.40;;;0.40;;
19705;SDS011;10003;52.506;4.700;2023-08-31T03:12:44;0.30;;;0.30;;
19705;SDS011;10003;52.506;4.700;2023-08-31T03:15:13;0.40;;;0.40;;
19705;SDS011;10003;52.506;4.700;2023-08-31T03:17:43;0.40;;;0.40;;
19705;SDS011;10003;52.506;4.700;2023-08-31T03:20:13;0.40;;;0.40;;
19705;SDS011;10003;52.506;4.700;2023-08-31T03:22:42;0.40;;;0.40;;
19705;SDS011;10003;52.506;4.700;2023-08-31T03:25:11;0.40;;;0.40;;
19705;SDS011;10003;52.506;4.700;2023-08-31T03:27:39;0.40;;;0.40;;
19705;SDS011;10003;52.506;4.700;2023-08-31T03:30:09;0.40;;;0.40;;
19705;SDS011;10003;52.506;4.700;2023-08-31T03:32:38;0.40;;;0.40;;
19705;SDS011;10003;52.506;4.700;2023-08-31T03:35:06;0.40;;;0.40;;
19705;SDS011;10003;52.506;4.700;2023-08-31T03:37:36;0.40;;;0.40;;
19705;SDS011;10003;52.506;4.700;2023-08-31T03:40:05;0.40;;;0.40;;
19705;SDS011;10003;52.506;4.700;2023-08-31T03:42:34;0.40;;;0.40;;
19705;SDS011;10003;52.506;4.700;2023-08-31T03:45:02;0.40;;;0.40;;
19705;SDS011;10003;52.506;4.700;2023-08-31T03:47:31;0.40;;;0.40;;
19705;SDS011;10003;52.506;4.700;2023-08-31T03:50:00;0.40;;;0.40;;
19705;SDS011;10003;52.506;4.700;2023-08-31T03:52:28;0.40;;;0.40;;
19705;SDS011;10003;52.506;4.700;2023-08-31T03:54:58;0.40;;;0.40;;
19705;SDS011;10003;52.506;4.700;2023-08-31T03:57:27;0.40;;;0.40;;
19705;SDS011;10003;52.506;4.700;2023-08-31T03:59:55;0.40;;;0.40;;
19705;SDS011;10003;52.506;4.700;2023-08-31T04:02:23;0.40;;;0.40;;
19705;SDS011;10003;52.506;4.700;2023-08-31T04:04:52;0.40;;;0.40;;
19705;SDS011;10003;52.506;4.700;2023-08-31T04:07:20;0.40;;;0.40;;
19705;SDS011;10003;52.506;4.700;2023-08-31T04:09:49;0.40;;;0.40;;
19705;SDS011;10003;52.506;4.700;2023-08-31T04:12:19;0.40;;;0.40;;
19705;SDS011;10003;52.506;4.700;2023-08-31T04:14:47;0.40;;;0.40;;
19705;SDS011;10003;52.506;4.700;2023-08-31T04:17:16;0.40;;;0.40;;
19705;SDS011;10003;52.506;4.700;2023-08-31T04:19:44;0.40;;;0.40;;
19705;SDS011;10003;52.506;4.700;2023-08-31T04:22:13;0.40;;;0.40;;
19705;SDS011;10003;52.506;4.700;2023-08-31T04:24:41;0.40;;;0.40;;
19705;SDS011;10003;52.506;4.700;2023-08-31T04:27:10;0.40;;;0.40;;
19705;SDS011;10003;52.506;4.700;2023-08-31T04:29:40;0.40;;;0.40;;
19705;SDS011;10003;52.506;4.700;2023-08-31T04:32:08;0.40;;;0.40;;
19705;SDS011;10003;52.506;4.700;2023-08-31T04:34:37;0.40;;;0.40;;
19705;SDS011;10003;52.506;4.700;2023-08-31T04:37:05;0.40;;;0.40;;
19705;SDS011;10003;52.506;4.700;2023-08-31T04:39:34;0.40;;;0.40;;
19705;SDS011;10003;52.506;4.700;2023-08-31T04:42:02;0.40;;;0.40;;
19705;SDS011;10003;52.506;4.700;2023-08-31T04:44:31;0.40;;;0.40;;
19705;SDS011;10003;52.506;4.700;2023-08-31T04:47:01;0.40;;;0.40;;
19705;SDS011;10003;52.506;4.700;2023-08-31T04:49:29;0.40;;;0.40;;
19705;SDS011;10003;52.506;4.700;2023-08-31T04:51:58;0.40;;;0.40;;
19705;SDS011;10003;52.506;4.700;2023-08-31T04:54:26;0.40;;;0.40;;
19705;SDS011;10003;52.506;4.700;2023-08-31T04:56:54;0.40;;;0.40;;
19705;SDS011;10003;52.506;4.700;2023-08-31T04:59:23;0.40;;;0.40;;
19705;SDS011;10003;52.506;4.700;2023-08-31T05:01:51;0.40;;;0.40;;
19705;SDS011;10003;52.506;4.700;2023-08-31T05:04:21;0.40;;;0.40;;
19705;SDS011;10003;52.506;4.700;2023-08-31T05:06:50;0.40;;;0.40;;
19705;SDS011;10003;52.506;4.700;2023-08-31T05:09:19;0.40;;;0.40;;
19705;SDS011;10003;52.506;4.700;2023-08-31T05:11:47;0.40;;;0.40;;
19705;SDS011;10003;52.506;4.700;2023-08-31T05:14:16;0.30;;;0.30;;
19705;SDS011;10003;52.506;4.700;2023-08-31T05:16:44;0.40;;;0.40;;
19705;SDS011;10003;52.506;4.700;2023-08-31T05:19:14;0.40;;;0.40;;
19705;SDS011;10003;52.506;4.700;2023-08-31T05:21:45;0.40;;;0.40;;
19705;SDS011;10003;52.506;4.700;2023-08-31T05:24:14;0.40;;;0.40;;
19705;SDS011;10003;52.506;4.700;2023-08-31T05:26:43;0.40;;;0.40;;
19705;SDS011;10003;52.506;4.700;2023-08-31T05:29:12;0.40;;;0.40;;
19705;SDS011;10003;52.506;4.700;2023-08-31T05:31:40;0.40;;;0.40;;
19705;SDS011;10003;52.506;4.700;2023-08-31T05:34:09;0.40;;;0.40;;
19705;SDS011;10003;52.506;4.700;2023-08-31T05:36:37;0.40;;;0.40;;
19705;SDS011;10003;52.506;4.700;2023-08-31T05:39:07;0.40;;;0.40;;
19705;SDS011;10003;52.506;4.700;2023-08-31T05:41:39;0.40;;;0.40;;
19705;SDS011;10003;52.506;4.700;2023-08-31T05:44:10;0.40;;;0.40;;
19705;SDS011;10003;52.506;4.700;2023-08-31T05:46:38;0.40;;;0.40;;
19705;SDS011;10003;52.506;4.700;2023-08-31T05:49:07;0.37;;;0.37;;
19705;SDS011;10003;52.506;4.700;2023-08-31T05:51:36;0.40;;;0.40;;
19705;SDS011;10003;52.506;4.700;2023-08-31T05:54:04;0.40;;;0.40;;
19705;SDS011;10003;52.506;4.700;2023-08-31T05:56:38;0.40;;;0.40;;
19705;SDS011;10003;52.506;4.700;2023-08-31T05:59:07;0.40;;;0.40;;
19705;SDS011;10003;52.506;4.700;2023-08-31T06:01:35;0.40;;;0.40;;
19705;SDS011;10003;52.506;4.700;2023-08-31T06:04:04;0.30;;;0.30;;
19705;SDS011;10003;52.506;4.700;2023-08-31T06:06:33;0.30;;;0.30;;
19705;SDS011;10003;52.506;4.700;2023-08-31T06:09:01;0.40;;;0.40;;
19705;SDS011;10003;52.506;4.700;2023-08-31T06:11:30;0.30;;;0.30;;
19705;SDS011;10003;52.506;4.700;2023-08-31T06:13:59;0.30;;;0.30;;
19705;SDS011;10003;52.506;4.700;2023-08-31T06:16:28;0.30;;;0.30;;
19705;SDS011;10003;52.506;4.700;2023-08-31T06:18:56;0.30;;;0.30;;
19705;SDS011;10003;52.506;4.700;2023-08-31T06:21:25;0.30;;;0.30;;
19705;SDS011;10003;52.506;4.700;2023-08-31T06:23:53;0.30;;;0.30;;
19705;SDS011;10003;52.506;4.700;2023-08-31T06:26:22;0.30;;;0.30;;
19705;SDS011;10003;52.506;4.700;2023-08-31T06:28:51;0.30;;;0.30;;
19705;SDS011;10003;52.506;4.700;2023-08-31T06:31:21;0.30;;;0.30;;
19705;SDS011;10003;52.506;4.700;2023-08-31T06:33:49;0.30;;;0.30;;
19705;SDS011;10003;52.506;4.700;2023-08-31T06:36:18;0.30;;;0.30;;
19705;SDS011;10003;52.506;4.700;2023-08-31T06:38:46;0.30;;;0.30;;
19705;SDS011;10003;52.506;4.700;2023-08-31T06:41:14;0.30;;;0.30;;
19705;SDS011;10003;52.506;4.700;2023-08-31T06:43:43;0.30;;;0.30;;
19705;SDS011;10003;52.506;4.700;2023-08-31T06:46:12;0.30;;;0.30;;
19705;SDS011;10003;52.506;4.700;2023-08-31T06:48:51;0.40;;;0.40;;
19705;SDS011;10003;52.506;4.700;2023-08-31T06:51:20;0.40;;;0.40;;
19705;SDS011;10003;52.506;4.700;2023-08-31T06:53:50;0.30;;;0.30;;
19705;SDS011;10003;52.506;4.700;2023-08-31T06:56:19;0.30;;;0.30;;
19705;SDS011;10003;52.506;4.700;2023-08-31T06:58:47;0.40;;;0.40;;
19705;SDS011;10003;52.506;4.700;2023-08-31T07:01:16;0.30;;;0.30;;
19705;SDS011;10003;52.506;4.700;2023-08-31T07:03:45;0.33;;;0.33;;
19705;SDS011;10003;52.506;4.700;2023-08-31T07:06:15;0.30;;;0.30;;
19705;SDS011;10003;52.506;4.700;2023-08-31T07:08:44;0.33;;;0.33;;
19705;SDS011;10003;52.506;4.700;2023-08-31T07:11:14;0.30;;;0.30;;
19705;SDS011;10003;52.506;4.700;2023-08-31T07:13:42;0.30;;;0.30;;
19705;SDS011;10003;52.506;4.700;2023-08-31T07:16:11;0.30;;;0.30;;
19705;SDS011;10003;52.506;4.700;2023-08-31T07:18:40;0.30;;;0.30;;
19705;SDS011;10003;52.506;4.700;2023-08-31T07:21:08;0.30;;;0.30;;
19705;SDS011;10003;52.506;4.700;2023-08-31T07:23:41;0.30;;;0.30;;
19705;SDS011;10003;52.506;4.700;2023-08-31T07:26:09;0.30;;;0.30;;
19705;SDS011;10003;52.506;4.700;2023-08-31T07:28:38;0.30;;;0.30;;
19705;SDS011;10003;52.506;4.700;2023-08-31T07:31:06;0.30;;;0.30;;
19705;SDS011;10003;52.506;4.700;2023-08-31T07:33:35;0.30;;;0.30;;
19705;SDS011;10003;52.506;4.700;2023-08-31T07:36:04;0.40;;;0.40;;
19705;SDS011;10003;52.506;4.700;2023-08-31T07:38:33;0.30;;;0.30;;
19705;SDS011;10003;52.506;4.700;2023-08-31T07:41:03;0.33;;;0.33;;
19705;SDS011;10003;52.506;4.700;2023-08-31T07:43:31;0.30;;;0.30;;
19705;SDS011;10003;52.506;4.700;2023-08-31T07:46:00;0.30;;;0.30;;
19705;SDS011;10003;52.506;4.700;2023-08-31T07:48:29;0.30;;;0.30;;
19705;SDS011;10003;52.506;4.700;2023-08-31T07:50:57;0.30;;;0.30;;
19705;SDS011;10003;52.506;4.700;2023-08-31T07:53:25;0.30;;;0.30;;
19705;SDS011;10003;52.506;4.700;2023-08-31T07:55:56;0.30;;;0.30;;
19705;SDS011;10003;52.506;4.700;2023-08-31T07:58:26;0.30;;;0.30;;
19705;SDS011;10003;52.506;4.700;2023-08-31T08:00:54;0.30;;;0.30;;
19705;SDS011;10003;52.506;4.700;2023-08-31T08:03:23;0.30;;;0.30;;
19705;SDS011;10003;52.506;4.700;2023-08-31T08:05:52;0.30;;;0.30;;
19705;SDS011;10003;52.506;4.700;2023-08-31T08:08:21;0.30;;;0.30;;
19705;SDS011;10003;52.506;4.700;2023-08-31T08:10:51;0.30;;;0.30;;
19705;SDS011;10003;52.506;4.700;2023-08-31T08:13:20;0.30;;;0.30;;
19705;SDS011;10003;52.506;4.700;2023-08-31T08:15:50;0.30;;;0.30;;
19705;SDS011;10003;52.506;4.700;2023-08-31T08:18:24;0.30;;;0.30;;
19705;SDS011;10003;52.506;4.700;2023-08-31T08:20:52;0.30;;;0.30;;
19705;SDS011;10003;52.506;4.700;2023-08-31T08:23:21;0.30;;;0.30;;
19705;SDS011;10003;52.506;4.700;2023-08-31T08:25:50;0.30;;;0.30;;
19705;SDS011;10003;52.506;4.700;2023-08-31T08:28:18;0.30;;;0.30;;
19705;SDS011;10003;52.506;4.700;2023-08-31T08:30:47;0.40;;;0.40;;
19705;SDS011;10003;52.506;4.700;2023-08-31T08:33:18;0.30;;;0.30;;
19705;SDS011;10003;52.506;4.700;2023-08-31T08:35:48;0.30;;;0.30;;
19705;SDS011;10003;52.506;4.700;2023-08-31T08:38:16;0.30;;;0.30;;
19705;SDS011;10003;52.506;4.700;2023-08-31T08:40:45;0.40;;;0.40;;
19705;SDS011;10003;52.506;4.700;2023-08-31T08:43:14;0.30;;;0.30;;
19705;SDS011;10003;52.506;4.700;2023-08-31T08:45:43;0.40;;;0.40;;
19705;SDS011;10003;52.506;4.700;2023-08-31T08:48:14;0.30;;;0.30;;
19705;SDS011;10003;52.506;4.700;2023-08-31T08:50:47;0.30;;;0.30;;
19705;SDS011;10003;52.506;4.700;2023-08-31T08:53:16;0.30;;;0.30;;
19705;SDS011;10003;52.506;4.700;2023-08-31T08:55:45;0.30;;;0.30;;
19705;SDS011;10003;52.506;4.700;2023-08-31T08:58:14;0.30;;;0.30;;
19705;SDS011;10003;52.506;4.700;2023-08-31T09:00:44;0.30;;;0.30;;
19705;SDS011;10003;52.506;4.700;2023-08-31T09:03:14;0.30;;;0.30;;
19705;SDS011;10003;52.506;4.700;2023-08-31T09:05:43;0.93;;;0.83;;
19705;SDS011;10003;52.506;4.700;2023-08-31T09:08:13;1.87;;;1.20;;
19705;SDS011;10003;52.506;4.700;2023-08-31T09:10:43;1.30;;;1.07;;
19705;SDS011;10003;52.506;4.700;2023-08-31T09:13:14;0.93;;;0.83;;
19705;SDS011;10003;52.506;4.700;2023-08-31T09:15:44;0.53;;;0.53;;
19705;SDS011;10003;52.506;4.700;2023-08-31T09:18:14;2.67;;;1.37;;
19705;SDS011;10003;52.506;4.700;2023-08-31T09:20:44;3.67;;;1.27;;
19705;SDS011;10003;52.506;4.700;2023-08-31T09:23:14;3.23;;;1.63;;
19705;SDS011;10003;52.506;4.700;2023-08-31T09:25:44;0.70;;;0.70;;
19705;SDS011;10003;52.506;4.700;2023-08-31T09:28:15;3.00;;;1.27;;
19705;SDS011;10003;52.506;4.700;2023-08-31T09:30:44;4.43;;;1.67;;
19705;SDS011;10003;52.506;4.700;2023-08-31T09:33:14;2.47;;;1.50;;
19705;SDS011;10003;52.506;4.700;2023-08-31T09:35:50;5.43;;;1.10;;
19705;SDS011;10003;52.506;4.700;2023-08-31T09:38:20;6.07;;;1.93;;
19705;SDS011;10003;52.506;4.700;2023-08-31T09:40:48;2.37;;;1.47;;
19705;SDS011;10003;52.506;4.700;2023-08-31T09:43:20;1.40;;;1.30;;
19705;SDS011;10003;52.506;4.700;2023-08-31T09:45:49;4.63;;;1.40;;
19705;SDS011;10003;52.506;4.700;2023-08-31T09:48:18;3.27;;;1.50;;
19705;SDS011;10003;52.506;4.700;2023-08-31T09:50:47;2.67;;;1.27;;
19705;SDS011;10003;52.506;4.700;2023-08-31T09:53:17;10.27;;;2.30;;
19705;SDS011;10003;52.506;4.700;2023-08-31T09:55:49;1.03;;;0.57;;
19705;SDS011;10003;52.506;4.700;2023-08-31T09:58:20;3.50;;;0.90;;
19705;SDS011;10003;52.506;4.700;2023-08-31T10:00:49;1.57;;;0.90;;
19705;SDS011;10003;52.506;4.700;2023-08-31T10:03:18;1.20;;;1.00;;
19705;SDS011;10003;52.506;4.700;2023-08-31T10:05:50;2.77;;;1.30;;
19705;SDS011;10003;52.506;4.700;2023-08-31T10:08:20;1.73;;;0.70;;
19705;SDS011;10003;52.506;4.700;2023-08-31T10:10:52;1.57;;;1.00;;
19705;SDS011;10003;52.506;4.700;2023-08-31T10:13:21;1.60;;;0.70;;
19705;SDS011;10003;52.506;4.700;2023-08-31T10:15:52;3.00;;;1.03;;
19705;SDS011;10003;52.506;4.700;2023-08-31T10:18:20;1.03;;;0.70;;
19705;SDS011;10003;52.506;4.700;2023-08-31T10:20:49;7.23;;;1.23;;
19705;SDS011;10003;52.506;4.700;2023-08-31T10:23:18;1.73;;;1.10;;
19705;SDS011;10003;52.506;4.700;2023-08-31T10:26:06;2.03;;;0.83;;
19705;SDS011;10003;52.506;4.700;2023-08-31T10:28:41;2.77;;;1.33;;
19705;SDS011;10003;52.506;4.700;2023-08-31T10:31:28;1.87;;;1.43;;
19705;SDS011;10003;52.506;4.700;2023-08-31T10:33:57;3.63;;;1.23;;
19705;SDS011;10003;52.506;4.700;2023-08-31T10:36:34;2.33;;;1.47;;
19705;SDS011;10003;52.506;4.700;2023-08-31T10:39:06;3.60;;;1.47;;
19705;SDS011;10003;52.506;4.700;2023-08-31T10:41:40;1.47;;;0.83;;
19705;SDS011;10003;52.506;4.700;2023-08-31T10:44:18;2.20;;;0.73;;
19705;SDS011;10003;52.506;4.700;2023-08-31T10:46:47;2.00;;;0.97;;
19705;SDS011;10003;52.506;4.700;2023-08-31T10:49:17;2.10;;;1.00;;
19705;SDS011;10003;52.506;4.700;2023-08-31T10:51:46;3.77;;;1.30;;
19705;SDS011;10003;52.506;4.700;2023-08-31T10:54:19;4.93;;;1.40;;
19705;SDS011;10003;52.506;4.700;2023-08-31T10:56:55;7.47;;;2.23;;
19705;SDS011;10003;52.506;4.700;2023-08-31T10:59:46;3.03;;;1.40;;
19705;SDS011;10003;52.506;4.700;2023-08-31T11:02:29;1.20;;;0.70;;
19705;SDS011;10003;52.506;4.700;2023-08-31T11:07:48;4.07;;;2.00;;
19705;SDS011;10003;52.506;4.700;2023-08-31T11:10:20;5.30;;;1.27;;
19705;SDS011;10003;52.506;4.700;2023-08-31T11:12:52;3.17;;;0.97;;
19705;SDS011;10003;52.506;4.700;2023-08-31T11:15:23;3.27;;;1.20;;
19705;SDS011;10003;52.506;4.700;2023-08-31T11:17:53;3.50;;;1.70;;
19705;SDS011;10003;52.506;4.700;2023-08-31T11:20:23;2.27;;;1.07;;
19705;SDS011;10003;52.506;4.700;2023-08-31T11:22:55;4.17;;;1.70;;
19705;SDS011;10003;52.506;4.700;2023-08-31T11:25:23;3.50;;;1.17;;
19705;SDS011;10003;52.506;4.700;2023-08-31T11:27:54;3.23;;;1.20;;
19705;SDS011;10003;52.506;4.700;2023-08-31T11:30:24;0.80;;;0.80;;
19705;SDS011;10003;52.506;4.700;2023-08-31T11:32:53;4.43;;;1.27;;
19705;SDS011;10003;52.506;4.700;2023-08-31T11:35:22;1.20;;;1.10;;
19705;SDS011;10003;52.506;4.700;2023-08-31T11:37:51;1.90;;;1.20;;
19705;SDS011;10003;52.506;4.700;2023-08-31T11:40:20;0.80;;;0.80;;
19705;SDS011;10003;52.506;4.700;2023-08-31T11:42:48;2.53;;;1.27;;
19705;SDS011;10003;52.506;4.700;2023-08-31T11:45:19;1.70;;;1.03;;
19705;SDS011;10003;52.506;4.700;2023-08-31T11:47:52;5.73;;;1.73;;
19705;SDS011;10003;52.506;4.700;2023-08-31T11:50:22;2.97;;;1.57;;
19705;SDS011;10003;52.506;4.700;2023-08-31T11:52:52;2.73;;;0.63;;
19705;SDS011;10003;52.506;4.700;2023-08-31T11:55:22;5.80;;;1.60;;
19705;SDS011;10003;52.506;4.700;2023-08-31T11:57:51;0.80;;;0.80;;
19705;SDS011;10003;52.506;4.700;2023-08-31T12:00:22;5.43;;;1.73;;
19705;SDS011;10003;52.506;4.700;2023-08-31T12:02:57;2.83;;;1.37;;
19705;SDS011;10003;52.506;4.700;2023-08-31T12:05:26;2.60;;;1.07;;
19705;SDS011;10003;52.506;4.700;2023-08-31T12:07:55;1.27;;;0.90;;
19705;SDS011;10003;52.506;4.700;2023-08-31T12:10:24;3.90;;;1.83;;
19705;SDS011;10003;52.506;4.700;2023-08-31T12:12:53;2.53;;;0.67;;
19705;SDS011;10003;52.506;4.700;2023-08-31T12:15:24;2.30;;;0.80;;
19705;SDS011;10003;52.506;4.700;2023-08-31T12:17:58;0.73;;;0.70;;
19705;SDS011;10003;52.506;4.700;2023-08-31T12:20:29;4.60;;;1.13;;
19705;SDS011;10003;52.506;4.700;2023-08-31T12:22:59;1.00;;;0.90;;
19705;SDS011;10003;52.506;4.700;2023-08-31T12:25:29;1.33;;;1.17;;
19705;SDS011;10003;52.506;4.700;2023-08-31T12:27:58;1.90;;;0.93;;
19705;SDS011;10003;52.506;4.700;2023-08-31T12:30:28;2.20;;;1.27;;
19705;SDS011;10003;52.506;4.700;2023-08-31T12:32:57;5.30;;;1.23;;
19705;SDS011;10003;52.506;4.700;2023-08-31T12:35:26;4.23;;;1.10;;
19705;SDS011;10003;52.506;4.700;2023-08-31T12:37:57;2.93;;;1.13;;
19705;SDS011;10003;52.506;4.700;2023-08-31T12:40:25;1.03;;;0.83;;
19705;SDS011;10003;52.506;4.700;2023-08-31T12:42:57;2.70;;;1.23;;
19705;SDS011;10003;52.506;4.700;2023-08-31T12:45:30;0.87;;;0.87;;
19705;SDS011;10003;52.506;4.700;2023-08-31T12:47:59;4.00;;;1.00;;
19705;SDS011;10003;52.506;4.700;2023-08-31T12:50:31;3.50;;;1.07;;
19705;SDS011;10003;52.506;4.700;2023-08-31T12:53:00;0.80;;;0.80;;
19705;SDS011;10003;52.506;4.700;2023-08-31T12:55:30;0.70;;;0.70;;
19705;SDS011;10003;52.506;4.700;2023-08-31T12:57:58;4.70;;;1.70;;
19705;SDS011;10003;52.506;4.700;2023-08-31T13:00:28;3.23;;;1.10;;
19705;SDS011;10003;52.506;4.700;2023-08-31T13:02:57;0.30;;;0.30;;
19705;SDS011;10003;52.506;4.700;2023-08-31T13:05:26;0.70;;;0.70;;
19705;SDS011;10003;52.506;4.700;2023-08-31T13:07:55;2.43;;;1.43;;
19705;SDS011;10003;52.506;4.700;2023-08-31T13:10:24;1.00;;;0.50;;
19705;SDS011;10003;52.506;4.700;2023-08-31T13:12:53;2.33;;;1.10;;
19705;SDS011;10003;52.506;4.700;2023-08-31T13:15:22;1.37;;;0.80;;
19705;SDS011;10003;52.506;4.700;2023-08-31T13:17:52;0.97;;;0.70;;
19705;SDS011;10003;52.506;4.700;2023-08-31T13:20:20;3.20;;;1.33;;
19705;SDS011;10003;52.506;4.700;2023-08-31T13:22:49;1.47;;;0.63;;
19705;SDS011;10003;52.506;4.700;2023-08-31T13:25:18;3.47;;;1.10;;
19705;SDS011;10003;52.506;4.700;2023-08-31T13:27:48;1.30;;;0.73;;
19705;SDS011;10003;52.506;4.700;2023-08-31T13:30:17;1.07;;;0.93;;
19705;SDS011;10003;52.506;4.700;2023-08-31T13:32:46;3.07;;;1.10;;
19705;SDS011;10003;52.506;4.700;2023-08-31T13:35:16;1.00;;;1.00;;
19705;SDS011;10003;52.506;4.700;2023-08-31T13:37:44;0.73;;;0.60;;
19705;SDS011;10003;52.506;4.700;2023-08-31T13:40:13;1.40;;;0.93;;
19705;SDS011;10003;52.506;4.700;2023-08-31T13:42:49;0.97;;;0.70;;
19705;SDS011;10003;52.506;4.700;2023-08-31T13:45:21;2.53;;;0.93;;
19705;SDS011;10003;52.506;4.700;2023-08-31T13:47:49;1.20;;;0.73;;
19705;SDS011;10003;52.506;4.700;2023-08-31T13:50:20;2.03;;;1.63;;
19705;SDS011;10003;52.506;4.700;2023-08-31T13:52:49;1.23;;;0.73;;
19705;SDS011;10003;52.506;4.700;2023-08-31T13:55:18;4.70;;;0.77;;
19705;SDS011;10003;52.506;4.700;2023-08-31T13:57:46;1.33;;;1.00;;
19705;SDS011;10003;52.506;4.700;2023-08-31T14:00:15;0.60;;;0.60;;
19705;SDS011;10003;52.506;4.700;2023-08-31T14:02:47;3.60;;;1.70;;
19705;SDS011;10003;52.506;4.700;2023-08-31T14:05:16;0.70;;;0.70;;
19705;SDS011;10003;52.506;4.700;2023-08-31T14:07:46;0.40;;;0.40;;
19705;SDS011;10003;52.506;4.700;2023-08-31T14:10:15;0.50;;;0.50;;
19705;SDS011;10003;52.506;4.700;2023-08-31T14:12:45;0.70;;;0.70;;
19705;SDS011;10003;52.506;4.700;2023-08-31T14:15:15;0.83;;;0.60;;
19705;SDS011;10003;52.506;4.700;2023-08-31T14:17:43;0.53;;;0.53;;
19705;SDS011;10003;52.506;4.700;2023-08-31T14:20:12;0.90;;;0.90;;
19705;SDS011;10003;52.506;4.700;2023-08-31T14:22:40;3.23;;;1.13;;
19705;SDS011;10003;52.506;4.700;2023-08-31T14:25:13;2.60;;;0.90;;
19705;SDS011;10003;52.506;4.700;2023-08-31T14:27:42;1.60;;;1.07;;
19705;SDS011;10003;52.506;4.700;2023-08-31T14:30:11;1.60;;;0.80;;
19705;SDS011;10003;52.506;4.700;2023-08-31T14:32:40;1.27;;;0.97;;
19705;SDS011;10003;52.506;4.700;2023-08-31T14:35:08;0.83;;;0.80;;
19705;SDS011;10003;52.506;4.700;2023-08-31T14:37:37;0.50;;;0.50;;
19705;SDS011;10003;52.506;4.700;2023-08-31T14:40:08;6.80;;;0.97;;
19705;SDS011;10003;52.506;4.700;2023-08-31T14:42:38;1.03;;;0.60;;
19705;SDS011;10003;52.506;4.700;2023-08-31T14:45:07;0.40;;;0.40;;
19705;SDS011;10003;52.506;4.700;2023-08-31T14:47:36;0.80;;;0.80;;
19705;SDS011;10003;52.506;4.700;2023-08-31T14:50:05;2.13;;;1.27;;
19705;SDS011;10003;52.506;4.700;2023-08-31T14:52:34;1.13;;;1.03;;
19705;SDS011;10003;52.506;4.700;2023-08-31T14:55:03;1.07;;;0.73;;
19705;SDS011;10003;52.506;4.700;2023-08-31T14:57:31;1.40;;;1.20;;
19705;SDS011;10003;52.506;4.700;2023-08-31T15:00:02;0.37;;;0.37;;
19705;SDS011;10003;52.506;4.700;2023-08-31T15:02:38;1.43;;;1.00;;
19705;SDS011;10003;52.506;4.700;2023-08-31T15:05:09;0.83;;;0.83;;